sensor_id;sensor_type;location;lat;lon;timestamp;P1;durP1;ratioP1;P2;durP2;ratioP2
57443;SDS011;43289;52.962;6.196;2022-08-30T00:01:03;10.32;;;5.82;;
57443;SDS011;43289;52.962;6.196;2022-08-30T00:03:43;9.55;;;6.18;;
57443;SDS011;43289;52.962;6.196;2022-08-30T00:06:13;8.70;;;5.68;;
57443;SDS011;43289;52.962;6.196;2022-08-30T00:08:40;9.30;;;6.32;;
57443;SDS011;43289;52.962;6.196;2022-08-30T00:11:07;11.20;;;6.68;;
57443;SDS011;43289;52.962;6.196;2022-08-30T00:13:35;8.38;;;5.80;;
57443;SDS011;43289;52.962;6.196;2022-08-30T00:16:01;7.82;;;6.15;;
57443;SDS011;43289;52.962;6.196;2022-08-30T00:18:27;9.02;;;6.80;;
57443;SDS011;43289;52.962;6.196;2022-08-30T00:20:54;7.68;;;5.85;;
57443;SDS011;43289;52.962;6.196;2022-08-30T00:23:21;7.38;;;6.03;;
57443;SDS011;43289;52.962;6.196;2022-08-30T00:25:47;7.78;;;5.93;;
57443;SDS011;43289;52.962;6.196;2022-08-30T00:28:13;8.80;;;6.60;;
57443;SDS011;43289;52.962;6.196;2022-08-30T00:30:48;10.30;;;6.85;;
57443;SDS011;43289;52.962;6.196;2022-08-30T00:33:14;11.10;;;6.13;;
57443;SDS011;43289;52.962;6.196;2022-08-30T00:35:40;7.45;;;6.57;;
57443;SDS011;43289;52.962;6.196;2022-08-30T00:38:07;8.48;;;6.25;;
57443;SDS011;43289;52.962;6.196;2022-08-30T00:40:34;10.25;;;6.45;;
57443;SDS011;43289;52.962;6.196;2022-08-30T00:43:01;8.15;;;5.80;;
57443;SDS011;43289;52.962;6.196;2022-08-30T00:45:35;9.07;;;6.82;;
57443;SDS011;43289;52.962;6.196;2022-08-30T00:48:01;10.45;;;6.57;;
57443;SDS011;43289;52.962;6.196;2022-08-30T00:50:30;9.90;;;6.57;;
57443;SDS011;43289;52.962;6.196;2022-08-30T00:52:58;8.45;;;6.72;;
57443;SDS011;43289;52.962;6.196;2022-08-30T00:55:25;8.48;;;6.60;;
57443;SDS011;43289;52.962;6.196;2022-08-30T00:57:52;8.80;;;5.88;;
57443;SDS011;43289;52.962;6.196;2022-08-30T01:00:20;6.78;;;5.63;;
57443;SDS011;43289;52.962;6.196;2022-08-30T01:02:46;7.65;;;5.70;;
57443;SDS011;43289;52.962;6.196;2022-08-30T01:05:13;8.27;;;6.25;;
57443;SDS011;43289;52.962;6.196;2022-08-30T01:07:39;9.18;;;5.63;;
57443;SDS011;43289;52.962;6.196;2022-08-30T01:10:06;9.25;;;5.90;;
57443;SDS011;43289;52.962;6.196;2022-08-30T01:12:33;11.65;;;5.80;;
57443;SDS011;43289;52.962;6.196;2022-08-30T01:15:00;8.32;;;5.97;;
57443;SDS011;43289;52.962;6.196;2022-08-30T01:17:44;7.45;;;6.13;;
57443;SDS011;43289;52.962;6.196;2022-08-30T01:20:13;11.48;;;6.38;;
57443;SDS011;43289;52.962;6.196;2022-08-30T01:25:17;7.25;;;5.78;;
57443;SDS011;43289;52.962;6.196;2022-08-30T01:27:45;9.07;;;7.15;;
57443;SDS011;43289;52.962;6.196;2022-08-30T01:30:12;12.73;;;6.85;;
57443;SDS011;43289;52.962;6.196;2022-08-30T01:32:39;8.57;;;6.50;;
57443;SDS011;43289;52.962;6.196;2022-08-30T01:35:07;7.78;;;6.32;;
57443;SDS011;43289;52.962;6.196;2022-08-30T01:37:36;9.25;;;6.65;;
57443;SDS011;43289;52.962;6.196;2022-08-30T01:40:03;7.70;;;6.20;;
57443;SDS011;43289;52.962;6.196;2022-08-30T01:42:31;8.45;;;6.32;;
57443;SDS011;43289;52.962;6.196;2022-08-30T01:44:57;8.93;;;6.45;;
57443;SDS011;43289;52.962;6.196;2022-08-30T01:47:23;7.50;;;6.35;;
57443;SDS011;43289;52.962;6.196;2022-08-30T01:49:49;8.32;;;6.50;;
57443;SDS011;43289;52.962;6.196;2022-08-30T01:52:16;7.40;;;5.97;;
57443;SDS011;43289;52.962;6.196;2022-08-30T01:54:42;10.35;;;6.85;;
57443;SDS011;43289;52.962;6.196;2022-08-30T01:57:10;11.77;;;6.85;;
57443;SDS011;43289;52.962;6.196;2022-08-30T01:59:36;11.45;;;7.25;;
57443;SDS011;43289;52.962;6.196;2022-08-30T02:02:03;9.25;;;5.85;;
57443;SDS011;43289;52.962;6.196;2022-08-30T02:04:30;11.43;;;6.88;;
57443;SDS011;43289;52.962;6.196;2022-08-30T02:06:56;8.00;;;6.38;;
57443;SDS011;43289;52.962;6.196;2022-08-30T02:09:22;8.80;;;6.45;;
57443;SDS011;43289;52.962;6.196;2022-08-30T02:11:48;8.23;;;5.70;;
57443;SDS011;43289;52.962;6.196;2022-08-30T02:14:14;8.10;;;5.97;;
57443;SDS011;43289;52.962;6.196;2022-08-30T02:16:40;7.63;;;5.85;;
57443;SDS011;43289;52.962;6.196;2022-08-30T02:19:07;7.95;;;5.90;;
57443;SDS011;43289;52.962;6.196;2022-08-30T02:21:33;7.80;;;5.93;;
57443;SDS011;43289;52.962;6.196;2022-08-30T02:23:59;8.57;;;5.50;;
57443;SDS011;43289;52.962;6.196;2022-08-30T02:26:25;6.88;;;5.80;;
57443;SDS011;43289;52.962;6.196;2022-08-30T02:28:51;7.55;;;5.88;;
57443;SDS011;43289;52.962;6.196;2022-08-30T02:31:18;9.70;;;6.57;;
57443;SDS011;43289;52.962;6.196;2022-08-30T02:33:45;7.93;;;6.00;;
57443;SDS011;43289;52.962;6.196;2022-08-30T02:36:11;8.43;;;7.03;;
57443;SDS011;43289;52.962;6.196;2022-08-30T02:38:37;11.02;;;6.97;;
57443;SDS011;43289;52.962;6.196;2022-08-30T02:41:04;10.85;;;7.85;;
57443;SDS011;43289;52.962;6.196;2022-08-30T02:43:30;8.45;;;5.90;;
57443;SDS011;43289;52.962;6.196;2022-08-30T02:49:18;9.98;;;6.18;;
57443;SDS011;43289;52.962;6.196;2022-08-30T02:51:44;8.57;;;6.00;;
57443;SDS011;43289;52.962;6.196;2022-08-30T02:54:10;9.32;;;6.22;;
57443;SDS011;43289;52.962;6.196;2022-08-30T02:56:42;7.30;;;5.25;;
57443;SDS011;43289;52.962;6.196;2022-08-30T02:59:08;7.50;;;5.70;;
57443;SDS011;43289;52.962;6.196;2022-08-30T03:01:34;9.27;;;5.45;;
57443;SDS011;43289;52.962;6.196;2022-08-30T03:04:03;6.82;;;5.25;;
57443;SDS011;43289;52.962;6.196;2022-08-30T03:06:29;11.13;;;6.15;;
57443;SDS011;43289;52.962;6.196;2022-08-30T03:08:55;8.10;;;6.57;;
57443;SDS011;43289;52.962;6.196;2022-08-30T03:11:21;7.88;;;6.35;;
57443;SDS011;43289;52.962;6.196;2022-08-30T03:13:47;7.60;;;5.53;;
57443;SDS011;43289;52.962;6.196;2022-08-30T03:16:15;6.50;;;5.22;;
57443;SDS011;43289;52.962;6.196;2022-08-30T03:18:41;8.43;;;5.43;;
57443;SDS011;43289;52.962;6.196;2022-08-30T03:21:11;6.82;;;5.50;;
57443;SDS011;43289;52.962;6.196;2022-08-30T03:23:37;9.18;;;5.68;;
57443;SDS011;43289;52.962;6.196;2022-08-30T03:26:05;6.53;;;5.43;;
57443;SDS011;43289;52.962;6.196;2022-08-30T03:28:31;7.03;;;4.95;;
57443;SDS011;43289;52.962;6.196;2022-08-30T03:30:57;6.80;;;5.25;;
57443;SDS011;43289;52.962;6.196;2022-08-30T03:33:23;8.50;;;6.00;;
57443;SDS011;43289;52.962;6.196;2022-08-30T03:35:49;6.90;;;4.50;;
57443;SDS011;43289;52.962;6.196;2022-08-30T03:38:15;8.00;;;4.80;;
57443;SDS011;43289;52.962;6.196;2022-08-30T03:40:41;6.75;;;4.65;;
57443;SDS011;43289;52.962;6.196;2022-08-30T03:43:07;6.70;;;4.47;;
57443;SDS011;43289;52.962;6.196;2022-08-30T03:45:33;5.88;;;4.22;;
57443;SDS011;43289;52.962;6.196;2022-08-30T03:48:00;5.55;;;4.00;;
57443;SDS011;43289;52.962;6.196;2022-08-30T03:50:29;6.03;;;3.78;;
57443;SDS011;43289;52.962;6.196;2022-08-30T03:52:56;7.05;;;3.78;;
57443;SDS011;43289;52.962;6.196;2022-08-30T03:55:22;6.57;;;3.80;;
57443;SDS011;43289;52.962;6.196;2022-08-30T03:57:48;7.70;;;4.65;;
57443;SDS011;43289;52.962;6.196;2022-08-30T04:00:14;5.15;;;3.65;;
57443;SDS011;43289;52.962;6.196;2022-08-30T04:02:41;6.85;;;5.03;;
57443;SDS011;43289;52.962;6.196;2022-08-30T04:05:07;7.55;;;4.80;;
57443;SDS011;43289;52.962;6.196;2022-08-30T04:07:34;7.88;;;5.45;;
57443;SDS011;43289;52.962;6.196;2022-08-30T04:10:00;7.45;;;5.20;;
57443;SDS011;43289;52.962;6.196;2022-08-30T04:12:26;6.97;;;4.82;;
57443;SDS011;43289;52.962;6.196;2022-08-30T04:14:52;6.43;;;5.30;;
57443;SDS011;43289;52.962;6.196;2022-08-30T04:17:18;5.13;;;3.72;;
57443;SDS011;43289;52.962;6.196;2022-08-30T04:19:44;5.50;;;3.60;;
57443;SDS011;43289;52.962;6.196;2022-08-30T04:22:10;4.97;;;3.97;;
57443;SDS011;43289;52.962;6.196;2022-08-30T04:24:36;5.60;;;3.70;;
57443;SDS011;43289;52.962;6.196;2022-08-30T04:27:02;5.05;;;4.13;;
57443;SDS011;43289;52.962;6.196;2022-08-30T04:29:28;4.57;;;3.33;;
57443;SDS011;43289;52.962;6.196;2022-08-30T04:31:54;5.05;;;2.90;;
57443;SDS011;43289;52.962;6.196;2022-08-30T04:34:20;5.72;;;3.50;;
57443;SDS011;43289;52.962;6.196;2022-08-30T04:36:49;8.73;;;4.70;;
57443;SDS011;43289;52.962;6.196;2022-08-30T04:39:16;10.63;;;4.95;;
57443;SDS011;43289;52.962;6.196;2022-08-30T04:41:42;7.80;;;5.50;;
57443;SDS011;43289;52.962;6.196;2022-08-30T04:44:08;7.10;;;4.70;;
57443;SDS011;43289;52.962;6.196;2022-08-30T04:46:34;8.60;;;6.70;;
57443;SDS011;43289;52.962;6.196;2022-08-30T04:49:02;9.10;;;4.85;;
57443;SDS011;43289;52.962;6.196;2022-08-30T04:51:28;6.63;;;4.82;;
57443;SDS011;43289;52.962;6.196;2022-08-30T04:53:54;6.13;;;4.60;;
57443;SDS011;43289;52.962;6.196;2022-08-30T04:56:21;6.30;;;4.47;;
57443;SDS011;43289;52.962;6.196;2022-08-30T04:58:48;6.03;;;4.18;;
57443;SDS011;43289;52.962;6.196;2022-08-30T05:01:15;6.30;;;4.20;;
57443;SDS011;43289;52.962;6.196;2022-08-30T05:03:42;11.90;;;5.35;;
57443;SDS011;43289;52.962;6.196;2022-08-30T05:06:10;8.20;;;4.53;;
57443;SDS011;43289;52.962;6.196;2022-08-30T05:08:36;6.43;;;4.35;;
57443;SDS011;43289;52.962;6.196;2022-08-30T05:11:03;5.88;;;4.55;;
57443;SDS011;43289;52.962;6.196;2022-08-30T05:13:29;6.22;;;4.68;;
57443;SDS011;43289;52.962;6.196;2022-08-30T05:15:55;7.45;;;5.18;;
57443;SDS011;43289;52.962;6.196;2022-08-30T05:18:21;8.80;;;4.78;;
57443;SDS011;43289;52.962;6.196;2022-08-30T05:20:47;7.15;;;4.70;;
57443;SDS011;43289;52.962;6.196;2022-08-30T05:23:13;11.23;;;5.13;;
57443;SDS011;43289;52.962;6.196;2022-08-30T05:25:40;6.95;;;5.18;;
57443;SDS011;43289;52.962;6.196;2022-08-30T05:28:07;6.93;;;5.03;;
57443;SDS011;43289;52.962;6.196;2022-08-30T05:30:34;7.63;;;6.18;;
57443;SDS011;43289;52.962;6.196;2022-08-30T05:33:00;9.07;;;5.85;;
57443;SDS011;43289;52.962;6.196;2022-08-30T05:35:26;8.23;;;6.05;;
57443;SDS011;43289;52.962;6.196;2022-08-30T05:37:52;10.27;;;7.00;;
57443;SDS011;43289;52.962;6.196;2022-08-30T05:40:19;9.23;;;7.90;;
57443;SDS011;43289;52.962;6.196;2022-08-30T05:42:51;9.23;;;6.32;;
57443;SDS011;43289;52.962;6.196;2022-08-30T05:45:20;8.63;;;6.53;;
57443;SDS011;43289;52.962;6.196;2022-08-30T05:47:46;12.30;;;8.43;;
57443;SDS011;43289;52.962;6.196;2022-08-30T05:50:12;9.77;;;6.10;;
57443;SDS011;43289;52.962;6.196;2022-08-30T05:52:39;10.68;;;8.13;;
57443;SDS011;43289;52.962;6.196;2022-08-30T05:55:05;9.95;;;7.53;;
57443;SDS011;43289;52.962;6.196;2022-08-30T05:57:33;15.68;;;8.15;;
57443;SDS011;43289;52.962;6.196;2022-08-30T06:00:00;9.90;;;7.50;;
57443;SDS011;43289;52.962;6.196;2022-08-30T06:02:26;13.65;;;8.45;;
57443;SDS011;43289;52.962;6.196;2022-08-30T06:04:52;9.60;;;7.97;;
57443;SDS011;43289;52.962;6.196;2022-08-30T06:07:36;9.18;;;7.10;;
57443;SDS011;43289;52.962;6.196;2022-08-30T06:10:03;10.50;;;8.02;;
57443;SDS011;43289;52.962;6.196;2022-08-30T06:12:30;14.35;;;7.40;;
57443;SDS011;43289;52.962;6.196;2022-08-30T06:14:56;9.90;;;6.97;;
57443;SDS011;43289;52.962;6.196;2022-08-30T06:17:22;10.43;;;8.27;;
57443;SDS011;43289;52.962;6.196;2022-08-30T06:19:48;9.60;;;6.20;;
57443;SDS011;43289;52.962;6.196;2022-08-30T06:22:14;10.70;;;7.38;;
57443;SDS011;43289;52.962;6.196;2022-08-30T06:24:40;11.15;;;7.05;;
57443;SDS011;43289;52.962;6.196;2022-08-30T06:27:06;12.70;;;8.05;;
57443;SDS011;43289;52.962;6.196;2022-08-30T06:29:34;8.80;;;6.60;;
57443;SDS011;43289;52.962;6.196;2022-08-30T06:32:00;10.93;;;6.28;;
57443;SDS011;43289;52.962;6.196;2022-08-30T06:34:26;9.88;;;6.63;;
57443;SDS011;43289;52.962;6.196;2022-08-30T06:36:52;7.97;;;5.90;;
57443;SDS011;43289;52.962;6.196;2022-08-30T06:39:18;15.73;;;6.63;;
57443;SDS011;43289;52.962;6.196;2022-08-30T06:41:44;10.50;;;5.65;;
57443;SDS011;43289;52.962;6.196;2022-08-30T06:44:10;9.00;;;5.80;;
57443;SDS011;43289;52.962;6.196;2022-08-30T06:46:37;8.95;;;5.65;;
57443;SDS011;43289;52.962;6.196;2022-08-30T06:49:04;8.65;;;5.43;;
57443;SDS011;43289;52.962;6.196;2022-08-30T06:51:32;10.27;;;6.00;;
57443;SDS011;43289;52.962;6.196;2022-08-30T06:53:59;7.68;;;5.50;;
57443;SDS011;43289;52.962;6.196;2022-08-30T06:56:25;10.18;;;4.68;;
57443;SDS011;43289;52.962;6.196;2022-08-30T06:58:51;9.57;;;4.65;;
57443;SDS011;43289;52.962;6.196;2022-08-30T07:01:18;6.65;;;3.95;;
57443;SDS011;43289;52.962;6.196;2022-08-30T07:03:45;8.27;;;3.67;;
57443;SDS011;43289;52.962;6.196;2022-08-30T07:06:11;6.32;;;3.80;;
57443;SDS011;43289;52.962;6.196;2022-08-30T07:08:38;9.93;;;4.20;;
57443;SDS011;43289;52.962;6.196;2022-08-30T07:11:04;7.20;;;4.07;;
57443;SDS011;43289;52.962;6.196;2022-08-30T07:13:32;5.63;;;3.25;;
57443;SDS011;43289;52.962;6.196;2022-08-30T07:15:59;6.78;;;3.45;;
57443;SDS011;43289;52.962;6.196;2022-08-30T07:18:25;6.40;;;2.95;;
57443;SDS011;43289;52.962;6.196;2022-08-30T07:21:14;7.55;;;2.97;;
57443;SDS011;43289;52.962;6.196;2022-08-30T07:23:41;6.78;;;3.10;;
57443;SDS011;43289;52.962;6.196;2022-08-30T07:26:12;5.97;;;2.92;;
57443;SDS011;43289;52.962;6.196;2022-08-30T07:28:39;6.35;;;3.95;;
57443;SDS011;43289;52.962;6.196;2022-08-30T07:31:07;5.78;;;3.00;;
57443;SDS011;43289;52.962;6.196;2022-08-30T07:33:37;6.50;;;2.90;;
57443;SDS011;43289;52.962;6.196;2022-08-30T07:36:04;7.00;;;2.45;;
57443;SDS011;43289;52.962;6.196;2022-08-30T07:38:31;6.18;;;2.30;;
57443;SDS011;43289;52.962;6.196;2022-08-30T07:43:47;4.95;;;2.17;;
57443;SDS011;43289;52.962;6.196;2022-08-30T07:46:14;4.85;;;2.42;;
57443;SDS011;43289;52.962;6.196;2022-08-30T07:48:41;7.22;;;2.80;;
57443;SDS011;43289;52.962;6.196;2022-08-30T07:51:11;6.55;;;2.08;;
57443;SDS011;43289;52.962;6.196;2022-08-30T07:53:43;7.60;;;1.95;;
57443;SDS011;43289;52.962;6.196;2022-08-30T07:56:10;4.28;;;1.80;;
57443;SDS011;43289;52.962;6.196;2022-08-30T07:58:36;9.77;;;2.35;;
57443;SDS011;43289;52.962;6.196;2022-08-30T08:01:07;7.03;;;2.30;;
57443;SDS011;43289;52.962;6.196;2022-08-30T08:03:37;2.90;;;1.45;;
57443;SDS011;43289;52.962;6.196;2022-08-30T08:06:04;3.60;;;1.70;;
57443;SDS011;43289;52.962;6.196;2022-08-30T08:08:31;4.45;;;1.63;;
57443;SDS011;43289;52.962;6.196;2022-08-30T08:10:57;7.47;;;2.00;;
57443;SDS011;43289;52.962;6.196;2022-08-30T08:13:23;5.55;;;1.60;;
57443;SDS011;43289;52.962;6.196;2022-08-30T08:15:49;2.63;;;1.45;;
57443;SDS011;43289;52.962;6.196;2022-08-30T08:18:16;4.15;;;1.77;;
57443;SDS011;43289;52.962;6.196;2022-08-30T08:20:42;4.20;;;1.70;;
57443;SDS011;43289;52.962;6.196;2022-08-30T08:23:08;3.50;;;1.58;;
57443;SDS011;43289;52.962;6.196;2022-08-30T08:25:37;6.93;;;1.80;;
57443;SDS011;43289;52.962;6.196;2022-08-30T08:28:03;3.42;;;1.60;;
57443;SDS011;43289;52.962;6.196;2022-08-30T08:30:31;3.65;;;1.67;;
57443;SDS011;43289;52.962;6.196;2022-08-30T08:32:58;3.03;;;1.58;;
57443;SDS011;43289;52.962;6.196;2022-08-30T08:35:24;5.15;;;2.45;;
57443;SDS011;43289;52.962;6.196;2022-08-30T08:37:50;4.13;;;1.70;;
57443;SDS011;43289;52.962;6.196;2022-08-30T08:40:16;3.72;;;1.48;;
57443;SDS011;43289;52.962;6.196;2022-08-30T08:48:07;5.57;;;2.17;;
57443;SDS011;43289;52.962;6.196;2022-08-30T08:50:34;4.70;;;1.88;;
57443;SDS011;43289;52.962;6.196;2022-08-30T08:53:03;3.85;;;1.90;;
57443;SDS011;43289;52.962;6.196;2022-08-30T08:55:50;6.30;;;1.60;;
57443;SDS011;43289;52.962;6.196;2022-08-30T08:58:24;4.85;;;1.40;;
57443;SDS011;43289;52.962;6.196;2022-08-30T09:01:04;3.70;;;1.65;;
57443;SDS011;43289;52.962;6.196;2022-08-30T09:03:32;3.83;;;1.50;;
57443;SDS011;43289;52.962;6.196;2022-08-30T09:05:59;6.47;;;1.67;;
57443;SDS011;43289;52.962;6.196;2022-08-30T09:08:26;2.97;;;1.40;;
57443;SDS011;43289;52.962;6.196;2022-08-30T09:11:02;3.10;;;1.70;;
57443;SDS011;43289;52.962;6.196;2022-08-30T09:13:30;4.40;;;1.58;;
57443;SDS011;43289;52.962;6.196;2022-08-30T09:15:57;3.28;;;1.60;;
57443;SDS011;43289;52.962;6.196;2022-08-30T09:18:42;4.20;;;1.60;;
57443;SDS011;43289;52.962;6.196;2022-08-30T09:21:10;2.22;;;1.40;;
57443;SDS011;43289;52.962;6.196;2022-08-30T09:23:36;2.30;;;1.38;;
57443;SDS011;43289;52.962;6.196;2022-08-30T09:28:47;2.92;;;1.40;;
57443;SDS011;43289;52.962;6.196;2022-08-30T09:36:25;4.63;;;1.70;;
57443;SDS011;43289;52.962;6.196;2022-08-30T09:39:01;6.03;;;2.00;;
57443;SDS011;43289;52.962;6.196;2022-08-30T09:41:33;6.53;;;2.63;;
57443;SDS011;43289;52.962;6.196;2022-08-30T09:44:21;3.42;;;1.73;;
57443;SDS011;43289;52.962;6.196;2022-08-30T09:49:46;2.72;;;1.35;;
57443;SDS011;43289;52.962;6.196;2022-08-30T09:54:55;3.13;;;1.73;;
57443;SDS011;43289;52.962;6.196;2022-08-30T10:00:02;3.67;;;1.30;;
57443;SDS011;43289;52.962;6.196;2022-08-30T10:10:09;3.88;;;1.67;;
57443;SDS011;43289;52.962;6.196;2022-08-30T10:12:43;6.18;;;1.95;;
57443;SDS011;43289;52.962;6.196;2022-08-30T10:15:24;3.58;;;1.25;;
57443;SDS011;43289;52.962;6.196;2022-08-30T10:18:36;3.13;;;1.50;;
57443;SDS011;43289;52.962;6.196;2022-08-30T10:20:54;4.15;;;1.52;;
57443;SDS011;43289;52.962;6.196;2022-08-30T10:23:24;5.20;;;1.83;;
57443;SDS011;43289;52.962;6.196;2022-08-30T10:28:38;2.80;;;1.55;;
57443;SDS011;43289;52.962;6.196;2022-08-30T10:31:06;3.70;;;1.48;;
57443;SDS011;43289;52.962;6.196;2022-08-30T10:33:38;6.63;;;1.52;;
57443;SDS011;43289;52.962;6.196;2022-08-30T10:36:08;3.10;;;1.48;;
57443;SDS011;43289;52.962;6.196;2022-08-30T10:38:45;3.70;;;1.35;;
57443;SDS011;43289;52.962;6.196;2022-08-30T10:41:23;5.40;;;1.58;;
57443;SDS011;43289;52.962;6.196;2022-08-30T10:44:06;2.40;;;1.40;;
57443;SDS011;43289;52.962;6.196;2022-08-30T10:49:01;3.47;;;1.52;;
57443;SDS011;43289;52.962;6.196;2022-08-30T10:54:07;3.72;;;1.30;;
57443;SDS011;43289;52.962;6.196;2022-08-30T10:56:34;3.92;;;1.38;;
57443;SDS011;43289;52.962;6.196;2022-08-30T10:59:03;3.08;;;1.38;;
57443;SDS011;43289;52.962;6.196;2022-08-30T11:11:53;3.67;;;1.20;;
57443;SDS011;43289;52.962;6.196;2022-08-30T11:14:21;2.70;;;1.45;;
57443;SDS011;43289;52.962;6.196;2022-08-30T11:16:49;3.45;;;1.20;;
57443;SDS011;43289;52.962;6.196;2022-08-30T11:19:18;1.77;;;1.30;;
57443;SDS011;43289;52.962;6.196;2022-08-30T11:21:45;2.17;;;1.38;;
57443;SDS011;43289;52.962;6.196;2022-08-30T11:24:19;3.28;;;1.10;;
57443;SDS011;43289;52.962;6.196;2022-08-30T11:31:53;4.00;;;1.30;;
57443;SDS011;43289;52.962;6.196;2022-08-30T11:37:06;2.80;;;1.40;;
57443;SDS011;43289;52.962;6.196;2022-08-30T11:42:33;3.17;;;1.00;;
57443;SDS011;43289;52.962;6.196;2022-08-30T11:47:50;5.82;;;1.33;;
57443;SDS011;43289;52.962;6.196;2022-08-30T11:52:45;3.42;;;1.30;;
57443;SDS011;43289;52.962;6.196;2022-08-30T11:57:49;1.92;;;1.40;;
57443;SDS011;43289;52.962;6.196;2022-08-30T12:00:25;3.30;;;1.40;;
57443;SDS011;43289;52.962;6.196;2022-08-30T12:03:02;3.45;;;1.50;;
57443;SDS011;43289;52.962;6.196;2022-08-30T12:05:44;2.15;;;1.20;;
57443;SDS011;43289;52.962;6.196;2022-08-30T12:10:55;1.67;;;1.15;;
57443;SDS011;43289;52.962;6.196;2022-08-30T12:16:19;3.05;;;1.10;;
57443;SDS011;43289;52.962;6.196;2022-08-30T12:18:56;3.17;;;1.13;;
57443;SDS011;43289;52.962;6.196;2022-08-30T12:21:29;3.13;;;1.40;;
57443;SDS011;43289;52.962;6.196;2022-08-30T12:29:06;3.15;;;1.20;;
57443;SDS011;43289;52.962;6.196;2022-08-30T12:31:32;4.45;;;1.38;;
57443;SDS011;43289;52.962;6.196;2022-08-30T12:39:06;4.20;;;1.10;;
57443;SDS011;43289;52.962;6.196;2022-08-30T12:41:39;1.85;;;1.08;;
57443;SDS011;43289;52.962;6.196;2022-08-30T12:44:13;3.20;;;1.48;;
57443;SDS011;43289;52.962;6.196;2022-08-30T12:46:42;2.65;;;1.20;;
57443;SDS011;43289;52.962;6.196;2022-08-30T12:49:11;2.28;;;1.20;;
57443;SDS011;43289;52.962;6.196;2022-08-30T12:51:39;3.70;;;1.60;;
57443;SDS011;43289;52.962;6.196;2022-08-30T12:54:08;2.25;;;1.20;;
57443;SDS011;43289;52.962;6.196;2022-08-30T12:56:54;5.40;;;1.20;;
57443;SDS011;43289;52.962;6.196;2022-08-30T12:59:39;2.38;;;1.15;;
57443;SDS011;43289;52.962;6.196;2022-08-30T13:02:07;3.92;;;1.48;;
57443;SDS011;43289;52.962;6.196;2022-08-30T13:04:36;3.03;;;1.10;;
57443;SDS011;43289;52.962;6.196;2022-08-30T13:07:03;2.70;;;1.10;;
57443;SDS011;43289;52.962;6.196;2022-08-30T13:09:32;2.72;;;1.20;;
57443;SDS011;43289;52.962;6.196;2022-08-30T13:12:04;1.98;;;1.20;;
57443;SDS011;43289;52.962;6.196;2022-08-30T13:19:34;3.20;;;1.30;;
57443;SDS011;43289;52.962;6.196;2022-08-30T13:22:04;5.25;;;1.55;;
57443;SDS011;43289;52.962;6.196;2022-08-30T13:24:31;4.03;;;1.63;;
57443;SDS011;43289;52.962;6.196;2022-08-30T13:26:58;13.43;;;1.55;;
57443;SDS011;43289;52.962;6.196;2022-08-30T13:29:33;4.05;;;1.48;;
57443;SDS011;43289;52.962;6.196;2022-08-30T13:32:08;2.55;;;1.42;;
57443;SDS011;43289;52.962;6.196;2022-08-30T13:34:34;3.15;;;1.30;;
57443;SDS011;43289;52.962;6.196;2022-08-30T13:37:03;3.25;;;1.30;;
57443;SDS011;43289;52.962;6.196;2022-08-30T13:39:30;3.25;;;1.20;;
57443;SDS011;43289;52.962;6.196;2022-08-30T13:41:56;4.15;;;1.58;;
57443;SDS011;43289;52.962;6.196;2022-08-30T13:44:25;3.05;;;0.98;;
57443;SDS011;43289;52.962;6.196;2022-08-30T13:46:53;2.20;;;1.17;;
57443;SDS011;43289;52.962;6.196;2022-08-30T13:49:25;5.18;;;1.60;;
57443;SDS011;43289;52.962;6.196;2022-08-30T13:51:51;4.82;;;1.30;;
57443;SDS011;43289;52.962;6.196;2022-08-30T13:54:18;1.67;;;1.13;;
57443;SDS011;43289;52.962;6.196;2022-08-30T13:56:51;2.05;;;1.00;;
57443;SDS011;43289;52.962;6.196;2022-08-30T13:59:23;3.88;;;1.30;;
57443;SDS011;43289;52.962;6.196;2022-08-30T14:01:52;2.92;;;1.23;;
57443;SDS011;43289;52.962;6.196;2022-08-30T14:04:23;2.72;;;1.17;;
57443;SDS011;43289;52.962;6.196;2022-08-30T14:07:13;3.67;;;1.45;;
57443;SDS011;43289;52.962;6.196;2022-08-30T14:09:41;4.90;;;1.90;;
57443;SDS011;43289;52.962;6.196;2022-08-30T14:12:16;4.40;;;1.33;;
57443;SDS011;43289;52.962;6.196;2022-08-30T14:14:43;2.28;;;1.23;;
57443;SDS011;43289;52.962;6.196;2022-08-30T14:17:09;2.47;;;1.35;;
57443;SDS011;43289;52.962;6.196;2022-08-30T14:19:35;1.88;;;1.20;;
57443;SDS011;43289;52.962;6.196;2022-08-30T14:22:04;2.55;;;1.33;;
57443;SDS011;43289;52.962;6.196;2022-08-30T14:24:30;5.72;;;1.30;;
57443;SDS011;43289;52.962;6.196;2022-08-30T14:26:56;3.72;;;1.52;;
57443;SDS011;43289;52.962;6.196;2022-08-30T14:29:27;3.33;;;1.40;;
57443;SDS011;43289;52.962;6.196;2022-08-30T14:32:05;5.65;;;1.60;;
57443;SDS011;43289;52.962;6.196;2022-08-30T14:34:34;4.13;;;1.58;;
57443;SDS011;43289;52.962;6.196;2022-08-30T14:37:06;5.95;;;1.65;;
57443;SDS011;43289;52.962;6.196;2022-08-30T14:39:35;4.85;;;1.35;;
57443;SDS011;43289;52.962;6.196;2022-08-30T14:42:02;2.58;;;1.33;;
57443;SDS011;43289;52.962;6.196;2022-08-30T14:44:34;2.05;;;1.10;;
57443;SDS011;43289;52.962;6.196;2022-08-30T14:47:01;5.70;;;1.42;;
57443;SDS011;43289;52.962;6.196;2022-08-30T14:49:27;3.03;;;1.20;;
57443;SDS011;43289;52.962;6.196;2022-08-30T14:51:55;2.47;;;1.38;;
57443;SDS011;43289;52.962;6.196;2022-08-30T14:54:23;2.88;;;1.30;;
57443;SDS011;43289;52.962;6.196;2022-08-30T14:56:53;2.42;;;1.40;;
57443;SDS011;43289;52.962;6.196;2022-08-30T14:59:19;2.15;;;1.30;;
57443;SDS011;43289;52.962;6.196;2022-08-30T15:01:45;2.80;;;1.33;;
57443;SDS011;43289;52.962;6.196;2022-08-30T15:04:11;1.65;;;1.05;;
57443;SDS011;43289;52.962;6.196;2022-08-30T15:06:39;1.27;;;0.98;;
57443;SDS011;43289;52.962;6.196;2022-08-30T15:09:06;1.52;;;1.00;;
57443;SDS011;43289;52.962;6.196;2022-08-30T15:11:35;2.47;;;1.52;;
57443;SDS011;43289;52.962;6.196;2022-08-30T15:14:02;4.18;;;1.23;;
57443;SDS011;43289;52.962;6.196;2022-08-30T15:16:30;1.90;;;1.08;;
57443;SDS011;43289;52.962;6.196;2022-08-30T15:19:00;3.83;;;1.25;;
57443;SDS011;43289;52.962;6.196;2022-08-30T15:21:32;2.50;;;1.27;;
57443;SDS011;43289;52.962;6.196;2022-08-30T15:23:59;2.15;;;1.20;;
57443;SDS011;43289;52.962;6.196;2022-08-30T15:26:26;1.83;;;1.27;;
57443;SDS011;43289;52.962;6.196;2022-08-30T15:28:52;2.05;;;1.20;;
57443;SDS011;43289;52.962;6.196;2022-08-30T15:33:54;2.88;;;1.13;;
57443;SDS011;43289;52.962;6.196;2022-08-30T15:36:20;2.33;;;1.27;;
57443;SDS011;43289;52.962;6.196;2022-08-30T15:38:46;13.35;;;1.85;;
57443;SDS011;43289;52.962;6.196;2022-08-30T15:41:13;1.17;;;0.90;;
57443;SDS011;43289;52.962;6.196;2022-08-30T15:43:44;3.28;;;1.10;;
57443;SDS011;43289;52.962;6.196;2022-08-30T15:48:39;1.30;;;1.00;;
57443;SDS011;43289;52.962;6.196;2022-08-30T15:51:06;3.15;;;1.40;;
57443;SDS011;43289;52.962;6.196;2022-08-30T15:53:32;2.17;;;1.23;;
57443;SDS011;43289;52.962;6.196;2022-08-30T15:55:59;3.67;;;1.20;;
57443;SDS011;43289;52.962;6.196;2022-08-30T15:58:26;3.13;;;1.15;;
57443;SDS011;43289;52.962;6.196;2022-08-30T16:00:52;2.90;;;0.90;;
57443;SDS011;43289;52.962;6.196;2022-08-30T16:03:21;2.72;;;1.20;;
57443;SDS011;43289;52.962;6.196;2022-08-30T16:05:47;2.22;;;1.10;;
57443;SDS011;43289;52.962;6.196;2022-08-30T16:08:13;3.47;;;1.00;;
57443;SDS011;43289;52.962;6.196;2022-08-30T16:10:39;1.35;;;1.00;;
57443;SDS011;43289;52.962;6.196;2022-08-30T16:13:06;2.53;;;1.10;;
57443;SDS011;43289;52.962;6.196;2022-08-30T16:15:32;3.30;;;1.17;;
57443;SDS011;43289;52.962;6.196;2022-08-30T16:17:58;4.00;;;1.23;;
57443;SDS011;43289;52.962;6.196;2022-08-30T16:20:24;1.98;;;1.02;;
57443;SDS011;43289;52.962;6.196;2022-08-30T16:22:50;3.28;;;1.35;;
57443;SDS011;43289;52.962;6.196;2022-08-30T16:25:19;3.28;;;1.10;;
57443;SDS011;43289;52.962;6.196;2022-08-30T16:27:48;2.20;;;1.23;;
57443;SDS011;43289;52.962;6.196;2022-08-30T16:30:17;3.10;;;1.10;;
57443;SDS011;43289;52.962;6.196;2022-08-30T16:32:47;7.93;;;1.70;;